Terminal Aerodrome Forecast
Issued by NWS Brownsville, TX

Home | Current Version | Previous Version | Text Only | Print | Product List | Glossary On
Versions: 1 2 3 4 5 6 7 8 9 10 11 12 13 14 15 16 17 18 19
288
FTUS44 KBRO 301900 AAA
TAFHRL
TAF AMD
KHRL 301900Z 3019/3118 13015G22KT P6SM VCTS SCT040CB
     FM302000 15015G25KT P6SM SCT040
     FM310200 15008KT P6SM FEW025
     FM310900 15005KT P6SM SCT025 SCT200
     FM311400 16016G24KT P6SM SCT030=

USA.gov is the U.S. government's official web portal to all federal, state and local government web resources and services.